sensor_id;sensor_type;location;lat;lon;timestamp;P1;durP1;ratioP1;P2;durP2;ratioP2
13891;SDS011;7016;48.172;8.058;2024-02-28T00:01:52;22.80;;;14.82;;
13891;SDS011;7016;48.172;8.058;2024-02-28T00:04:40;19.77;;;14.55;;
13891;SDS011;7016;48.172;8.058;2024-02-28T00:07:27;21.13;;;14.55;;
13891;SDS011;7016;48.172;8.058;2024-02-28T00:10:13;21.73;;;14.88;;
13891;SDS011;7016;48.172;8.058;2024-02-28T00:12:59;28.88;;;16.95;;
13891;SDS011;7016;48.172;8.058;2024-02-28T00:15:46;22.33;;;15.43;;
13891;SDS011;7016;48.172;8.058;2024-02-28T00:18:32;28.05;;;17.63;;
13891;SDS011;7016;48.172;8.058;2024-02-28T00:21:18;28.58;;;16.85;;
13891;SDS011;7016;48.172;8.058;2024-02-28T00:24:04;23.63;;;16.02;;
13891;SDS011;7016;48.172;8.058;2024-02-28T00:26:51;27.13;;;16.63;;
13891;SDS011;7016;48.172;8.058;2024-02-28T00:29:37;22.98;;;14.20;;
13891;SDS011;7016;48.172;8.058;2024-02-28T00:32:23;21.65;;;13.98;;
13891;SDS011;7016;48.172;8.058;2024-02-28T00:35:09;21.00;;;15.05;;
13891;SDS011;7016;48.172;8.058;2024-02-28T00:37:55;22.50;;;15.88;;
13891;SDS011;7016;48.172;8.058;2024-02-28T00:40:41;23.48;;;15.05;;
13891;SDS011;7016;48.172;8.058;2024-02-28T00:43:27;25.88;;;16.33;;
13891;SDS011;7016;48.172;8.058;2024-02-28T00:46:14;27.13;;;17.17;;
13891;SDS011;7016;48.172;8.058;2024-02-28T00:49:00;25.20;;;16.35;;
13891;SDS011;7016;48.172;8.058;2024-02-28T00:51:46;21.65;;;15.73;;
13891;SDS011;7016;48.172;8.058;2024-02-28T00:54:32;23.05;;;15.05;;
13891;SDS011;7016;48.172;8.058;2024-02-28T00:57:19;23.33;;;16.20;;
13891;SDS011;7016;48.172;8.058;2024-02-28T01:00:05;22.02;;;15.73;;
13891;SDS011;7016;48.172;8.058;2024-02-28T01:02:51;24.90;;;15.57;;
13891;SDS011;7016;48.172;8.058;2024-02-28T01:05:38;23.35;;;14.05;;
13891;SDS011;7016;48.172;8.058;2024-02-28T01:08:24;20.48;;;14.38;;
13891;SDS011;7016;48.172;8.058;2024-02-28T01:11:10;19.05;;;14.18;;
13891;SDS011;7016;48.172;8.058;2024-02-28T01:13:56;21.40;;;15.18;;
13891;SDS011;7016;48.172;8.058;2024-02-28T01:16:43;21.35;;;13.65;;
13891;SDS011;7016;48.172;8.058;2024-02-28T01:19:29;21.15;;;13.88;;
13891;SDS011;7016;48.172;8.058;2024-02-28T01:22:15;18.65;;;13.35;;
13891;SDS011;7016;48.172;8.058;2024-02-28T01:25:04;20.92;;;13.60;;
13891;SDS011;7016;48.172;8.058;2024-02-28T01:27:51;20.17;;;13.70;;
13891;SDS011;7016;48.172;8.058;2024-02-28T01:30:37;24.02;;;14.82;;
13891;SDS011;7016;48.172;8.058;2024-02-28T01:33:23;20.40;;;14.15;;
13891;SDS011;7016;48.172;8.058;2024-02-28T01:36:10;20.80;;;13.98;;
13891;SDS011;7016;48.172;8.058;2024-02-28T01:38:57;21.40;;;15.02;;
13891;SDS011;7016;48.172;8.058;2024-02-28T01:41:53;20.15;;;14.38;;
13891;SDS011;7016;48.172;8.058;2024-02-28T01:44:44;20.58;;;14.43;;
13891;SDS011;7016;48.172;8.058;2024-02-28T01:47:31;18.40;;;14.02;;
13891;SDS011;7016;48.172;8.058;2024-02-28T01:50:18;19.17;;;13.80;;
13891;SDS011;7016;48.172;8.058;2024-02-28T01:53:05;20.15;;;14.15;;
13891;SDS011;7016;48.172;8.058;2024-02-28T01:55:54;20.27;;;13.63;;
13891;SDS011;7016;48.172;8.058;2024-02-28T01:58:41;20.08;;;13.93;;
13891;SDS011;7016;48.172;8.058;2024-02-28T02:01:30;18.90;;;13.25;;
13891;SDS011;7016;48.172;8.058;2024-02-28T02:04:17;20.00;;;13.60;;
13891;SDS011;7016;48.172;8.058;2024-02-28T02:07:03;18.10;;;13.52;;
13891;SDS011;7016;48.172;8.058;2024-02-28T02:09:49;20.25;;;13.30;;
13891;SDS011;7016;48.172;8.058;2024-02-28T02:12:37;19.88;;;14.10;;
13891;SDS011;7016;48.172;8.058;2024-02-28T02:15:23;19.80;;;14.02;;
13891;SDS011;7016;48.172;8.058;2024-02-28T02:18:09;21.90;;;14.25;;
13891;SDS011;7016;48.172;8.058;2024-02-28T02:20:58;18.92;;;13.52;;
13891;SDS011;7016;48.172;8.058;2024-02-28T02:23:50;21.20;;;14.35;;
13891;SDS011;7016;48.172;8.058;2024-02-28T02:26:36;21.40;;;13.88;;
13891;SDS011;7016;48.172;8.058;2024-02-28T02:29:22;19.63;;;13.63;;
13891;SDS011;7016;48.172;8.058;2024-02-28T02:32:08;21.25;;;14.00;;
13891;SDS011;7016;48.172;8.058;2024-02-28T02:34:54;23.23;;;14.48;;
13891;SDS011;7016;48.172;8.058;2024-02-28T02:37:44;20.80;;;13.40;;
13891;SDS011;7016;48.172;8.058;2024-02-28T02:40:34;21.40;;;13.85;;
13891;SDS011;7016;48.172;8.058;2024-02-28T02:43:20;20.85;;;13.88;;
13891;SDS011;7016;48.172;8.058;2024-02-28T02:46:06;19.30;;;12.93;;
13891;SDS011;7016;48.172;8.058;2024-02-28T02:48:52;20.08;;;13.23;;
13891;SDS011;7016;48.172;8.058;2024-02-28T02:51:38;20.35;;;13.07;;
13891;SDS011;7016;48.172;8.058;2024-02-28T02:54:24;19.48;;;13.73;;
13891;SDS011;7016;48.172;8.058;2024-02-28T02:57:11;17.67;;;13.00;;
13891;SDS011;7016;48.172;8.058;2024-02-28T02:59:57;20.85;;;13.88;;
13891;SDS011;7016;48.172;8.058;2024-02-28T03:02:43;17.92;;;13.20;;
13891;SDS011;7016;48.172;8.058;2024-02-28T03:05:29;19.80;;;13.52;;
13891;SDS011;7016;48.172;8.058;2024-02-28T03:08:15;19.70;;;13.95;;
13891;SDS011;7016;48.172;8.058;2024-02-28T03:11:01;19.92;;;14.10;;
13891;SDS011;7016;48.172;8.058;2024-02-28T03:13:50;19.70;;;13.68;;
13891;SDS011;7016;48.172;8.058;2024-02-28T03:16:40;18.95;;;13.45;;
13891;SDS011;7016;48.172;8.058;2024-02-28T03:19:27;19.40;;;12.60;;
13891;SDS011;7016;48.172;8.058;2024-02-28T03:22:13;18.83;;;12.68;;
13891;SDS011;7016;48.172;8.058;2024-02-28T03:24:59;20.42;;;13.60;;
13891;SDS011;7016;48.172;8.058;2024-02-28T03:27:45;19.02;;;13.30;;
13891;SDS011;7016;48.172;8.058;2024-02-28T03:30:32;18.85;;;12.90;;
13891;SDS011;7016;48.172;8.058;2024-02-28T03:33:18;19.60;;;12.82;;
13891;SDS011;7016;48.172;8.058;2024-02-28T03:36:04;19.25;;;13.05;;
13891;SDS011;7016;48.172;8.058;2024-02-28T03:38:50;18.92;;;13.52;;
13891;SDS011;7016;48.172;8.058;2024-02-28T03:41:36;16.55;;;12.38;;
13891;SDS011;7016;48.172;8.058;2024-02-28T03:44:23;18.23;;;12.13;;
13891;SDS011;7016;48.172;8.058;2024-02-28T03:47:11;21.67;;;13.07;;
13891;SDS011;7016;48.172;8.058;2024-02-28T03:49:57;18.40;;;12.10;;
13891;SDS011;7016;48.172;8.058;2024-02-28T03:52:44;18.08;;;12.63;;
13891;SDS011;7016;48.172;8.058;2024-02-28T03:55:31;20.30;;;13.25;;
13891;SDS011;7016;48.172;8.058;2024-02-28T03:58:17;20.33;;;13.48;;
13891;SDS011;7016;48.172;8.058;2024-02-28T04:01:03;17.77;;;13.43;;
13891;SDS011;7016;48.172;8.058;2024-02-28T04:03:49;19.55;;;13.57;;
13891;SDS011;7016;48.172;8.058;2024-02-28T04:06:35;19.60;;;13.23;;
13891;SDS011;7016;48.172;8.058;2024-02-28T04:09:22;17.40;;;12.20;;
13891;SDS011;7016;48.172;8.058;2024-02-28T04:12:08;18.05;;;13.18;;
13891;SDS011;7016;48.172;8.058;2024-02-28T04:14:54;18.88;;;13.13;;
13891;SDS011;7016;48.172;8.058;2024-02-28T04:17:40;20.63;;;13.35;;
13891;SDS011;7016;48.172;8.058;2024-02-28T04:20:26;21.67;;;14.10;;
13891;SDS011;7016;48.172;8.058;2024-02-28T04:23:13;20.75;;;13.48;;
13891;SDS011;7016;48.172;8.058;2024-02-28T04:25:59;21.95;;;13.63;;
13891;SDS011;7016;48.172;8.058;2024-02-28T04:28:45;19.52;;;13.90;;
13891;SDS011;7016;48.172;8.058;2024-02-28T04:31:31;21.17;;;14.60;;
13891;SDS011;7016;48.172;8.058;2024-02-28T04:34:17;59.17;;;29.90;;
13891;SDS011;7016;48.172;8.058;2024-02-28T04:37:04;46.75;;;25.30;;
13891;SDS011;7016;48.172;8.058;2024-02-28T04:39:50;21.27;;;14.98;;
13891;SDS011;7016;48.172;8.058;2024-02-28T04:42:36;22.00;;;13.55;;
13891;SDS011;7016;48.172;8.058;2024-02-28T04:45:23;22.23;;;14.57;;
13891;SDS011;7016;48.172;8.058;2024-02-28T04:48:09;22.33;;;15.18;;
13891;SDS011;7016;48.172;8.058;2024-02-28T04:50:55;22.50;;;13.00;;
13891;SDS011;7016;48.172;8.058;2024-02-28T04:53:42;17.30;;;12.27;;
13891;SDS011;7016;48.172;8.058;2024-02-28T04:56:29;23.23;;;14.77;;
13891;SDS011;7016;48.172;8.058;2024-02-28T04:59:15;22.10;;;15.88;;
13891;SDS011;7016;48.172;8.058;2024-02-28T05:02:01;23.70;;;15.43;;
13891;SDS011;7016;48.172;8.058;2024-02-28T05:04:47;24.70;;;14.93;;
13891;SDS011;7016;48.172;8.058;2024-02-28T05:07:34;20.55;;;13.68;;
13891;SDS011;7016;48.172;8.058;2024-02-28T05:10:20;24.38;;;16.90;;
13891;SDS011;7016;48.172;8.058;2024-02-28T05:13:06;22.90;;;16.17;;
13891;SDS011;7016;48.172;8.058;2024-02-28T05:15:53;27.02;;;16.30;;
13891;SDS011;7016;48.172;8.058;2024-02-28T05:18:39;23.17;;;16.83;;
13891;SDS011;7016;48.172;8.058;2024-02-28T05:21:25;24.25;;;15.15;;
13891;SDS011;7016;48.172;8.058;2024-02-28T05:24:11;25.27;;;16.55;;
13891;SDS011;7016;48.172;8.058;2024-02-28T05:26:58;25.48;;;16.92;;
13891;SDS011;7016;48.172;8.058;2024-02-28T05:29:44;22.70;;;16.85;;
13891;SDS011;7016;48.172;8.058;2024-02-28T05:32:30;25.42;;;17.13;;
13891;SDS011;7016;48.172;8.058;2024-02-28T05:35:17;24.42;;;16.60;;
13891;SDS011;7016;48.172;8.058;2024-02-28T05:38:03;24.77;;;17.10;;
13891;SDS011;7016;48.172;8.058;2024-02-28T05:40:49;26.63;;;18.13;;
13891;SDS011;7016;48.172;8.058;2024-02-28T05:43:40;25.85;;;17.35;;
13891;SDS011;7016;48.172;8.058;2024-02-28T05:46:26;25.60;;;17.48;;
13891;SDS011;7016;48.172;8.058;2024-02-28T05:49:12;24.75;;;17.73;;
13891;SDS011;7016;48.172;8.058;2024-02-28T05:51:58;25.85;;;17.23;;
13891;SDS011;7016;48.172;8.058;2024-02-28T05:54:44;26.77;;;18.02;;
13891;SDS011;7016;48.172;8.058;2024-02-28T05:57:30;27.50;;;18.42;;
13891;SDS011;7016;48.172;8.058;2024-02-28T06:00:17;29.48;;;18.75;;
13891;SDS011;7016;48.172;8.058;2024-02-28T06:03:03;27.25;;;18.55;;
13891;SDS011;7016;48.172;8.058;2024-02-28T06:05:50;26.67;;;18.73;;
13891;SDS011;7016;48.172;8.058;2024-02-28T06:08:39;30.02;;;19.25;;
13891;SDS011;7016;48.172;8.058;2024-02-28T06:11:26;29.17;;;18.23;;
13891;SDS011;7016;48.172;8.058;2024-02-28T06:14:12;26.70;;;18.25;;
13891;SDS011;7016;48.172;8.058;2024-02-28T06:16:58;29.60;;;18.65;;
13891;SDS011;7016;48.172;8.058;2024-02-28T06:19:44;49.13;;;23.60;;
13891;SDS011;7016;48.172;8.058;2024-02-28T06:22:30;30.65;;;20.17;;
13891;SDS011;7016;48.172;8.058;2024-02-28T06:25:17;31.98;;;19.85;;
13891;SDS011;7016;48.172;8.058;2024-02-28T06:28:05;28.10;;;18.92;;
13891;SDS011;7016;48.172;8.058;2024-02-28T06:30:52;27.27;;;19.10;;
13891;SDS011;7016;48.172;8.058;2024-02-28T06:33:38;30.70;;;20.55;;
13891;SDS011;7016;48.172;8.058;2024-02-28T06:36:24;27.67;;;19.42;;
13891;SDS011;7016;48.172;8.058;2024-02-28T06:39:10;25.73;;;18.60;;
13891;SDS011;7016;48.172;8.058;2024-02-28T06:41:56;25.42;;;18.00;;
13891;SDS011;7016;48.172;8.058;2024-02-28T06:44:43;26.52;;;18.75;;
13891;SDS011;7016;48.172;8.058;2024-02-28T06:47:29;31.50;;;19.27;;
13891;SDS011;7016;48.172;8.058;2024-02-28T06:50:16;35.90;;;19.48;;
13891;SDS011;7016;48.172;8.058;2024-02-28T06:53:02;26.70;;;18.60;;
13891;SDS011;7016;48.172;8.058;2024-02-28T06:55:49;25.52;;;17.75;;
13891;SDS011;7016;48.172;8.058;2024-02-28T06:58:35;27.80;;;18.45;;
13891;SDS011;7016;48.172;8.058;2024-02-28T07:01:21;23.85;;;15.90;;
13891;SDS011;7016;48.172;8.058;2024-02-28T07:04:08;25.70;;;16.38;;
13891;SDS011;7016;48.172;8.058;2024-02-28T07:06:54;28.00;;;17.65;;
13891;SDS011;7016;48.172;8.058;2024-02-28T07:09:40;24.05;;;16.90;;
13891;SDS011;7016;48.172;8.058;2024-02-28T07:12:26;29.80;;;19.45;;
13891;SDS011;7016;48.172;8.058;2024-02-28T07:15:12;32.15;;;21.10;;
13891;SDS011;7016;48.172;8.058;2024-02-28T07:17:59;28.02;;;19.55;;
13891;SDS011;7016;48.172;8.058;2024-02-28T07:20:45;27.23;;;19.15;;
13891;SDS011;7016;48.172;8.058;2024-02-28T07:23:31;28.38;;;19.15;;
13891;SDS011;7016;48.172;8.058;2024-02-28T07:26:17;27.65;;;17.85;;
13891;SDS011;7016;48.172;8.058;2024-02-28T07:29:03;24.83;;;17.00;;
13891;SDS011;7016;48.172;8.058;2024-02-28T07:31:50;21.30;;;15.80;;
13891;SDS011;7016;48.172;8.058;2024-02-28T07:34:37;22.55;;;15.65;;
13891;SDS011;7016;48.172;8.058;2024-02-28T07:37:23;26.35;;;16.17;;
13891;SDS011;7016;48.172;8.058;2024-02-28T07:40:09;29.52;;;18.35;;
13891;SDS011;7016;48.172;8.058;2024-02-28T07:42:55;28.10;;;18.55;;
13891;SDS011;7016;48.172;8.058;2024-02-28T07:45:41;28.77;;;18.75;;
13891;SDS011;7016;48.172;8.058;2024-02-28T07:48:28;31.95;;;19.83;;
13891;SDS011;7016;48.172;8.058;2024-02-28T07:51:14;28.73;;;18.90;;
13891;SDS011;7016;48.172;8.058;2024-02-28T07:54:00;27.25;;;18.17;;
13891;SDS011;7016;48.172;8.058;2024-02-28T07:56:46;28.38;;;18.73;;
13891;SDS011;7016;48.172;8.058;2024-02-28T07:59:38;30.20;;;20.75;;
13891;SDS011;7016;48.172;8.058;2024-02-28T08:02:27;31.05;;;19.80;;
13891;SDS011;7016;48.172;8.058;2024-02-28T08:05:13;30.08;;;17.92;;
13891;SDS011;7016;48.172;8.058;2024-02-28T08:08:03;32.83;;;20.05;;
13891;SDS011;7016;48.172;8.058;2024-02-28T08:10:53;26.65;;;17.42;;
13891;SDS011;7016;48.172;8.058;2024-02-28T08:13:40;24.85;;;17.98;;
13891;SDS011;7016;48.172;8.058;2024-02-28T08:16:26;27.42;;;17.65;;
13891;SDS011;7016;48.172;8.058;2024-02-28T08:19:12;30.17;;;20.63;;
13891;SDS011;7016;48.172;8.058;2024-02-28T08:21:58;41.17;;;27.63;;
13891;SDS011;7016;48.172;8.058;2024-02-28T08:24:44;42.50;;;28.65;;
13891;SDS011;7016;48.172;8.058;2024-02-28T08:27:31;40.08;;;26.30;;
13891;SDS011;7016;48.172;8.058;2024-02-28T08:30:20;31.88;;;22.30;;
13891;SDS011;7016;48.172;8.058;2024-02-28T08:33:06;39.67;;;24.38;;
13891;SDS011;7016;48.172;8.058;2024-02-28T08:35:54;40.80;;;25.58;;
13891;SDS011;7016;48.172;8.058;2024-02-28T08:38:40;37.28;;;25.30;;
13891;SDS011;7016;48.172;8.058;2024-02-28T08:41:27;42.72;;;28.25;;
13891;SDS011;7016;48.172;8.058;2024-02-28T08:44:13;44.55;;;27.52;;
13891;SDS011;7016;48.172;8.058;2024-02-28T08:46:59;42.75;;;27.10;;
13891;SDS011;7016;48.172;8.058;2024-02-28T08:49:45;43.95;;;27.58;;
13891;SDS011;7016;48.172;8.058;2024-02-28T08:52:31;47.10;;;28.10;;
13891;SDS011;7016;48.172;8.058;2024-02-28T08:55:18;45.22;;;29.17;;
13891;SDS011;7016;48.172;8.058;2024-02-28T08:58:06;41.20;;;27.25;;
13891;SDS011;7016;48.172;8.058;2024-02-28T09:00:53;42.22;;;27.23;;
13891;SDS011;7016;48.172;8.058;2024-02-28T09:03:39;40.78;;;25.95;;
13891;SDS011;7016;48.172;8.058;2024-02-28T09:06:26;44.42;;;26.58;;
13891;SDS011;7016;48.172;8.058;2024-02-28T09:09:12;45.08;;;30.77;;
13891;SDS011;7016;48.172;8.058;2024-02-28T09:12:00;48.10;;;32.30;;
13891;SDS011;7016;48.172;8.058;2024-02-28T09:14:48;53.30;;;33.05;;
13891;SDS011;7016;48.172;8.058;2024-02-28T09:17:43;57.03;;;34.85;;
13891;SDS011;7016;48.172;8.058;2024-02-28T09:20:29;56.70;;;33.92;;
13891;SDS011;7016;48.172;8.058;2024-02-28T09:23:16;51.22;;;32.90;;
13891;SDS011;7016;48.172;8.058;2024-02-28T09:26:05;53.00;;;31.92;;
13891;SDS011;7016;48.172;8.058;2024-02-28T09:28:51;45.35;;;29.98;;
13891;SDS011;7016;48.172;8.058;2024-02-28T09:31:38;45.85;;;30.80;;
13891;SDS011;7016;48.172;8.058;2024-02-28T09:34:24;45.67;;;29.92;;
13891;SDS011;7016;48.172;8.058;2024-02-28T09:37:10;42.38;;;27.77;;
13891;SDS011;7016;48.172;8.058;2024-02-28T09:39:56;26.77;;;17.15;;
13891;SDS011;7016;48.172;8.058;2024-02-28T09:42:45;46.90;;;26.88;;
13891;SDS011;7016;48.172;8.058;2024-02-28T09:45:37;41.35;;;22.15;;
13891;SDS011;7016;48.172;8.058;2024-02-28T09:48:23;26.67;;;17.35;;
13891;SDS011;7016;48.172;8.058;2024-02-28T09:51:14;22.15;;;14.55;;
13891;SDS011;7016;48.172;8.058;2024-02-28T09:54:04;19.15;;;13.00;;
13891;SDS011;7016;48.172;8.058;2024-02-28T09:56:51;20.05;;;13.95;;
13891;SDS011;7016;48.172;8.058;2024-02-28T09:59:37;18.30;;;12.38;;
13891;SDS011;7016;48.172;8.058;2024-02-28T10:02:24;17.92;;;12.00;;
13891;SDS011;7016;48.172;8.058;2024-02-28T10:05:13;18.50;;;12.63;;
13891;SDS011;7016;48.172;8.058;2024-02-28T10:08:01;18.25;;;12.75;;
13891;SDS011;7016;48.172;8.058;2024-02-28T10:10:48;18.15;;;11.63;;
13891;SDS011;7016;48.172;8.058;2024-02-28T10:13:36;18.73;;;12.15;;
13891;SDS011;7016;48.172;8.058;2024-02-28T10:16:28;18.45;;;12.27;;
13891;SDS011;7016;48.172;8.058;2024-02-28T10:19:15;17.83;;;11.95;;
13891;SDS011;7016;48.172;8.058;2024-02-28T10:22:01;16.92;;;11.48;;
13891;SDS011;7016;48.172;8.058;2024-02-28T10:24:47;19.50;;;11.15;;
13891;SDS011;7016;48.172;8.058;2024-02-28T10:27:34;15.95;;;11.50;;
13891;SDS011;7016;48.172;8.058;2024-02-28T10:30:20;16.95;;;11.85;;
13891;SDS011;7016;48.172;8.058;2024-02-28T10:33:16;16.98;;;10.30;;
13891;SDS011;7016;48.172;8.058;2024-02-28T10:36:05;15.27;;;10.48;;
13891;SDS011;7016;48.172;8.058;2024-02-28T10:38:51;15.90;;;10.35;;
13891;SDS011;7016;48.172;8.058;2024-02-28T10:41:39;16.92;;;9.93;;
13891;SDS011;7016;48.172;8.058;2024-02-28T10:44:25;14.32;;;9.27;;
13891;SDS011;7016;48.172;8.058;2024-02-28T10:47:12;15.23;;;10.50;;
13891;SDS011;7016;48.172;8.058;2024-02-28T10:50:01;16.05;;;10.27;;
13891;SDS011;7016;48.172;8.058;2024-02-28T10:52:47;17.92;;;10.35;;
13891;SDS011;7016;48.172;8.058;2024-02-28T10:55:39;15.48;;;10.02;;
13891;SDS011;7016;48.172;8.058;2024-02-28T10:58:26;18.48;;;10.60;;
13891;SDS011;7016;48.172;8.058;2024-02-28T11:01:22;12.50;;;9.38;;
13891;SDS011;7016;48.172;8.058;2024-02-28T11:04:10;18.00;;;10.20;;
13891;SDS011;7016;48.172;8.058;2024-02-28T11:06:57;16.42;;;10.05;;
13891;SDS011;7016;48.172;8.058;2024-02-28T11:09:43;13.98;;;9.05;;
13891;SDS011;7016;48.172;8.058;2024-02-28T11:12:32;15.88;;;9.90;;
13891;SDS011;7016;48.172;8.058;2024-02-28T11:15:18;13.90;;;9.18;;
13891;SDS011;7016;48.172;8.058;2024-02-28T11:18:07;14.55;;;9.57;;
13891;SDS011;7016;48.172;8.058;2024-02-28T11:20:55;15.73;;;9.38;;
13891;SDS011;7016;48.172;8.058;2024-02-28T11:23:41;13.05;;;9.35;;
13891;SDS011;7016;48.172;8.058;2024-02-28T11:26:32;17.27;;;9.95;;
13891;SDS011;7016;48.172;8.058;2024-02-28T11:29:37;13.90;;;9.48;;
13891;SDS011;7016;48.172;8.058;2024-02-28T11:32:26;15.53;;;9.77;;
13891;SDS011;7016;48.172;8.058;2024-02-28T11:35:12;12.20;;;8.45;;
13891;SDS011;7016;48.172;8.058;2024-02-28T11:37:59;12.48;;;8.52;;
13891;SDS011;7016;48.172;8.058;2024-02-28T11:40:49;12.82;;;8.27;;
13891;SDS011;7016;48.172;8.058;2024-02-28T11:43:35;12.07;;;8.30;;
13891;SDS011;7016;48.172;8.058;2024-02-28T11:46:21;12.90;;;8.30;;
13891;SDS011;7016;48.172;8.058;2024-02-28T11:49:09;10.93;;;7.95;;
13891;SDS011;7016;48.172;8.058;2024-02-28T11:51:56;11.98;;;8.25;;
13891;SDS011;7016;48.172;8.058;2024-02-28T11:54:42;13.40;;;9.63;;
13891;SDS011;7016;48.172;8.058;2024-02-28T11:57:28;13.70;;;9.75;;
13891;SDS011;7016;48.172;8.058;2024-02-28T12:00:16;12.93;;;9.25;;
13891;SDS011;7016;48.172;8.058;2024-02-28T12:03:05;13.13;;;9.13;;
13891;SDS011;7016;48.172;8.058;2024-02-28T12:05:52;11.63;;;8.13;;
13891;SDS011;7016;48.172;8.058;2024-02-28T12:08:38;13.13;;;8.43;;
13891;SDS011;7016;48.172;8.058;2024-02-28T12:11:25;13.27;;;9.02;;
13891;SDS011;7016;48.172;8.058;2024-02-28T12:14:14;14.02;;;9.45;;
13891;SDS011;7016;48.172;8.058;2024-02-28T12:17:00;14.70;;;9.38;;
13891;SDS011;7016;48.172;8.058;2024-02-28T12:19:47;13.75;;;8.80;;
13891;SDS011;7016;48.172;8.058;2024-02-28T12:22:33;13.32;;;8.90;;
13891;SDS011;7016;48.172;8.058;2024-02-28T12:25:19;13.30;;;8.60;;
13891;SDS011;7016;48.172;8.058;2024-02-28T12:28:05;15.55;;;8.45;;
13891;SDS011;7016;48.172;8.058;2024-02-28T12:30:52;12.07;;;8.30;;
13891;SDS011;7016;48.172;8.058;2024-02-28T12:33:39;12.23;;;8.30;;
13891;SDS011;7016;48.172;8.058;2024-02-28T12:36:25;10.57;;;7.35;;
13891;SDS011;7016;48.172;8.058;2024-02-28T12:39:12;11.27;;;7.50;;
13891;SDS011;7016;48.172;8.058;2024-02-28T12:41:58;11.80;;;8.20;;
13891;SDS011;7016;48.172;8.058;2024-02-28T12:44:44;12.10;;;8.40;;
13891;SDS011;7016;48.172;8.058;2024-02-28T12:47:31;12.13;;;8.05;;
13891;SDS011;7016;48.172;8.058;2024-02-28T12:50:17;13.98;;;7.97;;
13891;SDS011;7016;48.172;8.058;2024-02-28T12:53:04;10.35;;;7.45;;
13891;SDS011;7016;48.172;8.058;2024-02-28T12:55:51;13.00;;;8.88;;
13891;SDS011;7016;48.172;8.058;2024-02-28T12:58:37;16.42;;;9.68;;
13891;SDS011;7016;48.172;8.058;2024-02-28T13:01:24;11.82;;;9.00;;
13891;SDS011;7016;48.172;8.058;2024-02-28T13:04:10;14.55;;;10.20;;
13891;SDS011;7016;48.172;8.058;2024-02-28T13:06:56;14.00;;;8.85;;
13891;SDS011;7016;48.172;8.058;2024-02-28T13:09:42;14.50;;;8.88;;
13891;SDS011;7016;48.172;8.058;2024-02-28T13:12:29;11.77;;;9.10;;
13891;SDS011;7016;48.172;8.058;2024-02-28T13:15:15;14.60;;;8.43;;
13891;SDS011;7016;48.172;8.058;2024-02-28T13:18:01;13.32;;;8.45;;
13891;SDS011;7016;48.172;8.058;2024-02-28T13:20:52;15.43;;;9.25;;
13891;SDS011;7016;48.172;8.058;2024-02-28T13:23:38;12.32;;;8.68;;
13891;SDS011;7016;48.172;8.058;2024-02-28T13:26:25;15.35;;;10.65;;
13891;SDS011;7016;48.172;8.058;2024-02-28T13:29:11;15.80;;;10.80;;
13891;SDS011;7016;48.172;8.058;2024-02-28T13:31:58;11.68;;;8.77;;
13891;SDS011;7016;48.172;8.058;2024-02-28T13:34:44;13.80;;;9.57;;
13891;SDS011;7016;48.172;8.058;2024-02-28T13:37:30;14.68;;;9.18;;
13891;SDS011;7016;48.172;8.058;2024-02-28T13:40:18;13.65;;;9.43;;
13891;SDS011;7016;48.172;8.058;2024-02-28T13:43:04;14.70;;;8.70;;
13891;SDS011;7016;48.172;8.058;2024-02-28T13:45:50;13.65;;;9.38;;
13891;SDS011;7016;48.172;8.058;2024-02-28T13:48:37;15.68;;;9.20;;
13891;SDS011;7016;48.172;8.058;2024-02-28T13:51:23;12.70;;;8.45;;
13891;SDS011;7016;48.172;8.058;2024-02-28T13:54:09;14.55;;;9.40;;
13891;SDS011;7016;48.172;8.058;2024-02-28T13:56:56;13.55;;;9.50;;
13891;SDS011;7016;48.172;8.058;2024-02-28T13:59:42;12.20;;;8.75;;
13891;SDS011;7016;48.172;8.058;2024-02-28T14:02:28;14.20;;;8.95;;
13891;SDS011;7016;48.172;8.058;2024-02-28T14:05:14;13.90;;;9.20;;
13891;SDS011;7016;48.172;8.058;2024-02-28T14:08:01;13.05;;;9.05;;
13891;SDS011;7016;48.172;8.058;2024-02-28T14:10:49;14.20;;;9.52;;
13891;SDS011;7016;48.172;8.058;2024-02-28T14:13:35;14.50;;;8.55;;
13891;SDS011;7016;48.172;8.058;2024-02-28T14:16:23;14.18;;;9.43;;
13891;SDS011;7016;48.172;8.058;2024-02-28T14:19:09;13.55;;;8.90;;
13891;SDS011;7016;48.172;8.058;2024-02-28T14:21:55;16.45;;;9.38;;
13891;SDS011;7016;48.172;8.058;2024-02-28T14:24:42;14.07;;;9.73;;
13891;SDS011;7016;48.172;8.058;2024-02-28T14:27:28;13.15;;;8.70;;
13891;SDS011;7016;48.172;8.058;2024-02-28T14:30:20;14.68;;;9.65;;
13891;SDS011;7016;48.172;8.058;2024-02-28T14:33:06;11.00;;;8.52;;
13891;SDS011;7016;48.172;8.058;2024-02-28T14:35:52;12.98;;;9.02;;
13891;SDS011;7016;48.172;8.058;2024-02-28T14:38:39;12.90;;;9.00;;
13891;SDS011;7016;48.172;8.058;2024-02-28T14:41:25;14.15;;;8.65;;
13891;SDS011;7016;48.172;8.058;2024-02-28T14:44:11;15.88;;;8.65;;
13891;SDS011;7016;48.172;8.058;2024-02-28T14:46:58;12.23;;;8.32;;
13891;SDS011;7016;48.172;8.058;2024-02-28T14:49:44;14.43;;;8.75;;
13891;SDS011;7016;48.172;8.058;2024-02-28T14:52:31;13.75;;;8.32;;
13891;SDS011;7016;48.172;8.058;2024-02-28T14:55:17;11.05;;;8.75;;
13891;SDS011;7016;48.172;8.058;2024-02-28T14:58:04;11.80;;;8.80;;
13891;SDS011;7016;48.172;8.058;2024-02-28T15:00:50;14.07;;;8.77;;
13891;SDS011;7016;48.172;8.058;2024-02-28T15:03:36;11.48;;;8.65;;
13891;SDS011;7016;48.172;8.058;2024-02-28T15:06:22;13.00;;;8.27;;
13891;SDS011;7016;48.172;8.058;2024-02-28T15:09:08;12.68;;;8.77;;
13891;SDS011;7016;48.172;8.058;2024-02-28T15:11:54;11.48;;;7.90;;
13891;SDS011;7016;48.172;8.058;2024-02-28T15:14:42;12.35;;;9.00;;
13891;SDS011;7016;48.172;8.058;2024-02-28T15:17:28;11.68;;;8.45;;
13891;SDS011;7016;48.172;8.058;2024-02-28T15:20:20;11.35;;;7.82;;
13891;SDS011;7016;48.172;8.058;2024-02-28T15:23:07;14.02;;;8.45;;
13891;SDS011;7016;48.172;8.058;2024-02-28T15:25:53;15.18;;;9.15;;
13891;SDS011;7016;48.172;8.058;2024-02-28T15:28:40;14.25;;;8.57;;
13891;SDS011;7016;48.172;8.058;2024-02-28T15:31:26;11.88;;;8.60;;
13891;SDS011;7016;48.172;8.058;2024-02-28T15:34:13;13.45;;;9.68;;
13891;SDS011;7016;48.172;8.058;2024-02-28T15:36:59;12.82;;;9.05;;
13891;SDS011;7016;48.172;8.058;2024-02-28T15:39:46;15.27;;;10.10;;
13891;SDS011;7016;48.172;8.058;2024-02-28T15:42:32;12.48;;;9.07;;
13891;SDS011;7016;48.172;8.058;2024-02-28T15:45:19;15.27;;;9.45;;
13891;SDS011;7016;48.172;8.058;2024-02-28T15:48:06;13.70;;;9.00;;
13891;SDS011;7016;48.172;8.058;2024-02-28T15:50:52;12.13;;;9.13;;
13891;SDS011;7016;48.172;8.058;2024-02-28T15:53:39;15.90;;;9.80;;
13891;SDS011;7016;48.172;8.058;2024-02-28T15:56:25;18.15;;;10.05;;
13891;SDS011;7016;48.172;8.058;2024-02-28T15:59:11;15.25;;;9.55;;
13891;SDS011;7016;48.172;8.058;2024-02-28T16:01:58;13.73;;;9.82;;
13891;SDS011;7016;48.172;8.058;2024-02-28T16:04:44;16.88;;;10.07;;
13891;SDS011;7016;48.172;8.058;2024-02-28T16:07:31;15.10;;;9.63;;
13891;SDS011;7016;48.172;8.058;2024-02-28T16:10:17;15.77;;;10.60;;
13891;SDS011;7016;48.172;8.058;2024-02-28T16:13:03;17.17;;;10.50;;
13891;SDS011;7016;48.172;8.058;2024-02-28T16:15:50;15.88;;;10.70;;
13891;SDS011;7016;48.172;8.058;2024-02-28T16:18:36;14.25;;;10.18;;
13891;SDS011;7016;48.172;8.058;2024-02-28T16:21:22;17.88;;;11.73;;
13891;SDS011;7016;48.172;8.058;2024-02-28T16:24:08;19.45;;;11.98;;
13891;SDS011;7016;48.172;8.058;2024-02-28T16:26:55;15.52;;;10.60;;
13891;SDS011;7016;48.172;8.058;2024-02-28T16:29:41;20.10;;;13.23;;
13891;SDS011;7016;48.172;8.058;2024-02-28T16:32:27;21.85;;;12.40;;
13891;SDS011;7016;48.172;8.058;2024-02-28T16:35:13;17.58;;;12.35;;